• Join FlightAware (Why Join?)
  • Login
  • US Flag 
03:38PM EDT


 

Airport Tracker/Info


-or-


 

Live Flight TrackerFlight Track Log ✈ BJS542 ✈ 13-Aug-2013 ✈ KPWM - KBTV

Flight Track Log - Related Links

Times and Time Zones

All times are in EDT time to prevent confusion due to time zone crossing. See the BJS542 flight status page for this flight to view local times or setup timezone preferences in your user account.

Time Position Orientation Groundspeed Altitude Reporting Facility
EDT Latitude Longitude Course Direction KTS MPH feet Rate Location/Type
01:46PM 43.6600 -70.4167 297° West 212 244 5,500  Level Boston Center
01:47PM 43.6803 -70.4964 289° West 239 275 9,500 4,020 Climbing Boston Center
01:48PM 43.7133 -70.6103 292° West 279 321 13,800 3,240 Climbing Boston Center
01:49PM 43.7461 -70.7186 293° West 321 369 16,000 1,080 Climbing Boston Center
01:50PM 43.7789 -70.8211 294° West 354 407 16,000  Level Boston Center
01:51PM 43.7987 -70.8298 297° West  Level FlightAware Approximate
01:51PM 43.8269 -70.9753 293° West 367 422 16,100  Level Boston Center
01:52PM 43.8703 -71.1183 293° West 372 428 16,100  Level Boston Center
01:53PM 43.9178 -71.2728 293° West 372 428 16,100  Level Boston Center
01:54PM 43.9586 -71.4075 293° West 377 434 16,100  Level Boston Center
01:55PM 43.9931 -71.5139 294° West 377 434 16,100  Level Boston Center
01:56PM 44.0358 -71.6633 292° West 371 427 16,100  Level Boston Center
01:57PM 44.0761 -71.7900 294° West 366 421 16,100  Level Boston Center
01:58PM 44.1122 -71.9167 292° West 361 415 16,100  Level Boston Center
01:59PM 44.1439 -72.0178 294° West 361 415 16,100 -60 Level Boston Center
02:00PM 44.1881 -72.1708 292° West 361 415 16,000 -960 Descending Boston Center
02:01PM 44.2217 -72.2981 290° West 356 410 14,300 -1,680 Descending Boston Center
02:02PM 44.2592 -72.4197 293° West 351 404 12,700 -1,440 Descending Boston Center
02:03PM 44.2883 -72.5242 291° West 351 404 11,400 -900 Descending Boston Center
02:04PM 44.3297 -72.6664 292° West 343 395 11,000 -240 Descending Boston Center
02:05PM 44.3608 -72.7653 294° West 326 375 11,000 -720 Level Boston Center
02:06PM 44.4022 -72.8497 304° West 279 321 9,600 -1,920 Descending Boston Center
02:07PM 44.4394 -72.9314 303° West 255 293 7,200 -1,800 Descending Boston Center
02:08PM 44.4725 -73.0161 299° West 255 293 6,000 -1,080 Descending Boston Center
02:09PM 44.5117 -73.0922 306° West 243 280 5,100 -1,020 Descending Boston Center
02:10PM 44.5675 -73.1656 317° Northwest 248 285 4,000 -780 Descending Boston Center
02:11PM 44.6108 -73.2186 319° Northwest 237 273 3,600 -780 Descending Boston Center
02:12PM 44.6061 -73.2828 264° West 152 175 2,500 -660 Descending Boston Center
02:14PM 44.5192 -73.2261 155° Southeast 142 163 1,700 -600 Descending Boston Center
02:15PM 44.4922 -73.1850 133° Southeast 153 176 700 -720 Descending Boston Center
02:16PM 44.4656 -73.1469 134° Southeast 145 167 300 -240 Descending Boston Center
02:17PM 44.4675 -73.1528 295° West 73 84 300  Level Boston Center
02:18PM 44.4653 -73.1497 136° Southeast 42 48 300  Level Boston Center